sensor_id;sensor_type;location;lat;lon;timestamp;pressure;altitude;pressure_sealevel;temperature;humidity
35848;BME280;22332;51.954;20.118;2022-10-16T00:02:35;100194.33;;;14.48;74.47
35848;BME280;22332;51.954;20.118;2022-10-16T00:05:42;100193.83;;;14.49;74.34
35848;BME280;22332;51.954;20.118;2022-10-16T00:08:49;100195.19;;;14.49;74.21
35848;BME280;22332;51.954;20.118;2022-10-16T00:11:54;100195.20;;;14.48;74.35
35848;BME280;22332;51.954;20.118;2022-10-16T00:15:00;100200.58;;;14.46;74.26
35848;BME280;22332;51.954;20.118;2022-10-16T00:18:06;100195.33;;;14.43;74.27
35848;BME280;22332;51.954;20.118;2022-10-16T00:21:13;100192.04;;;14.40;74.22
35848;BME280;22332;51.954;20.118;2022-10-16T00:24:19;100194.61;;;14.38;74.24
35848;BME280;22332;51.954;20.118;2022-10-16T00:27:24;100199.07;;;14.38;74.23
35848;BME280;22332;51.954;20.118;2022-10-16T00:30:30;100202.57;;;14.40;74.38
35848;BME280;22332;51.954;20.118;2022-10-16T00:33:36;100207.21;;;14.43;74.38
35848;BME280;22332;51.954;20.118;2022-10-16T00:36:41;100211.91;;;14.44;74.27
35848;BME280;22332;51.954;20.118;2022-10-16T00:39:47;100213.08;;;14.45;74.37
35848;BME280;22332;51.954;20.118;2022-10-16T00:42:52;100212.95;;;14.45;74.34
35848;BME280;22332;51.954;20.118;2022-10-16T00:45:57;100209.77;;;14.43;74.32
35848;BME280;22332;51.954;20.118;2022-10-16T00:49:06;100205.02;;;14.40;74.40
35848;BME280;22332;51.954;20.118;2022-10-16T00:52:14;100209.50;;;14.37;74.40
35848;BME280;22332;51.954;20.118;2022-10-16T00:55:20;100209.25;;;14.34;74.33
35848;BME280;22332;51.954;20.118;2022-10-16T00:58:26;100215.89;;;14.34;74.48
35848;BME280;22332;51.954;20.118;2022-10-16T01:01:31;100214.58;;;14.37;74.47
35848;BME280;22332;51.954;20.118;2022-10-16T01:04:40;100214.09;;;14.39;74.46
35848;BME280;22332;51.954;20.118;2022-10-16T01:07:49;100217.48;;;14.41;74.44
35848;BME280;22332;51.954;20.118;2022-10-16T01:11:01;100222.80;;;14.41;74.27
35848;BME280;22332;51.954;20.118;2022-10-16T01:14:17;100233.08;;;14.41;74.32
35848;BME280;22332;51.954;20.118;2022-10-16T01:17:32;100233.73;;;14.38;74.56
35848;BME280;22332;51.954;20.118;2022-10-16T01:20:44;100232.77;;;14.36;74.43
35848;BME280;22332;51.954;20.118;2022-10-16T01:23:59;100232.29;;;14.32;74.64
35848;BME280;22332;51.954;20.118;2022-10-16T01:27:11;100235.11;;;14.28;74.77
35848;BME280;22332;51.954;20.118;2022-10-16T01:30:21;100230.51;;;14.27;74.72
35848;BME280;22332;51.954;20.118;2022-10-16T01:33:33;100227.73;;;14.28;74.75
35848;BME280;22332;51.954;20.118;2022-10-16T01:36:39;100226.48;;;14.28;74.70
35848;BME280;22332;51.954;20.118;2022-10-16T01:39:47;100223.98;;;14.28;74.68
35848;BME280;22332;51.954;20.118;2022-10-16T01:42:57;100224.02;;;14.26;74.80
35848;BME280;22332;51.954;20.118;2022-10-16T01:46:06;100223.72;;;14.24;74.99
35848;BME280;22332;51.954;20.118;2022-10-16T01:49:13;100221.77;;;14.19;74.76
35848;BME280;22332;51.954;20.118;2022-10-16T01:52:23;100221.34;;;14.12;74.79
35848;BME280;22332;51.954;20.118;2022-10-16T01:55:32;100224.88;;;14.00;74.91
35848;BME280;22332;51.954;20.118;2022-10-16T01:58:44;100224.08;;;13.91;74.95
35848;BME280;22332;51.954;20.118;2022-10-16T02:01:55;100224.23;;;13.87;75.24
35848;BME280;22332;51.954;20.118;2022-10-16T02:05:05;100233.90;;;13.85;75.26
35848;BME280;22332;51.954;20.118;2022-10-16T02:08:14;100240.25;;;13.81;75.15
35848;BME280;22332;51.954;20.118;2022-10-16T02:11:19;100239.54;;;13.76;75.27
35848;BME280;22332;51.954;20.118;2022-10-16T02:14:25;100244.34;;;13.69;75.39
35848;BME280;22332;51.954;20.118;2022-10-16T02:17:31;100250.66;;;13.59;75.39
35848;BME280;22332;51.954;20.118;2022-10-16T02:20:42;100252.13;;;13.49;75.40
35848;BME280;22332;51.954;20.118;2022-10-16T02:23:54;100253.81;;;13.39;75.63
35848;BME280;22332;51.954;20.118;2022-10-16T02:27:08;100254.38;;;13.30;75.56
35848;BME280;22332;51.954;20.118;2022-10-16T02:30:21;100256.33;;;13.24;75.72
35848;BME280;22332;51.954;20.118;2022-10-16T02:33:30;100255.59;;;13.19;75.96
35848;BME280;22332;51.954;20.118;2022-10-16T02:36:37;100251.73;;;13.15;75.98
35848;BME280;22332;51.954;20.118;2022-10-16T02:39:43;100254.14;;;13.11;75.83
35848;BME280;22332;51.954;20.118;2022-10-16T02:42:52;100259.70;;;13.04;76.04
35848;BME280;22332;51.954;20.118;2022-10-16T02:45:57;100264.10;;;12.97;76.01
35848;BME280;22332;51.954;20.118;2022-10-16T02:49:03;100265.73;;;12.88;76.01
35848;BME280;22332;51.954;20.118;2022-10-16T02:52:08;100269.08;;;12.77;76.15
35848;BME280;22332;51.954;20.118;2022-10-16T02:55:14;100268.01;;;12.69;76.18
35848;BME280;22332;51.954;20.118;2022-10-16T02:58:19;100269.59;;;12.63;76.20
35848;BME280;22332;51.954;20.118;2022-10-16T03:01:25;100268.87;;;12.60;76.37
35848;BME280;22332;51.954;20.118;2022-10-16T03:04:31;100272.61;;;12.54;76.43
35848;BME280;22332;51.954;20.118;2022-10-16T03:07:36;100276.09;;;12.52;76.46
35848;BME280;22332;51.954;20.118;2022-10-16T03:10:41;100275.89;;;12.47;76.67
35848;BME280;22332;51.954;20.118;2022-10-16T03:13:47;100273.33;;;12.41;76.51
35848;BME280;22332;51.954;20.118;2022-10-16T03:16:52;100270.27;;;12.31;76.63
35848;BME280;22332;51.954;20.118;2022-10-16T03:19:57;100265.19;;;12.24;76.60
35848;BME280;22332;51.954;20.118;2022-10-16T03:23:03;100273.51;;;12.17;76.80
35848;BME280;22332;51.954;20.118;2022-10-16T03:26:08;100281.19;;;12.12;76.88
35848;BME280;22332;51.954;20.118;2022-10-16T03:29:13;100281.23;;;12.07;76.81
35848;BME280;22332;51.954;20.118;2022-10-16T03:32:18;100279.17;;;12.01;76.99
35848;BME280;22332;51.954;20.118;2022-10-16T03:35:26;100284.95;;;11.99;77.24
35848;BME280;22332;51.954;20.118;2022-10-16T03:38:31;100284.59;;;11.95;77.42
35848;BME280;22332;51.954;20.118;2022-10-16T03:41:37;100291.81;;;11.91;77.36
35848;BME280;22332;51.954;20.118;2022-10-16T03:44:42;100293.89;;;11.86;77.66
35848;BME280;22332;51.954;20.118;2022-10-16T03:47:47;100297.61;;;11.83;77.98
35848;BME280;22332;51.954;20.118;2022-10-16T03:50:53;100301.66;;;11.84;77.99
35848;BME280;22332;51.954;20.118;2022-10-16T03:53:59;100300.30;;;11.86;78.12
35848;BME280;22332;51.954;20.118;2022-10-16T03:57:04;100298.60;;;11.89;78.09
35848;BME280;22332;51.954;20.118;2022-10-16T04:00:12;100300.21;;;11.89;78.37
35848;BME280;22332;51.954;20.118;2022-10-16T04:03:17;100296.02;;;11.88;78.30
35848;BME280;22332;51.954;20.118;2022-10-16T04:06:23;100301.34;;;11.87;78.49
35848;BME280;22332;51.954;20.118;2022-10-16T04:09:28;100305.86;;;11.85;78.78
35848;BME280;22332;51.954;20.118;2022-10-16T04:12:34;100301.08;;;11.84;78.88
35848;BME280;22332;51.954;20.118;2022-10-16T04:15:39;100301.61;;;11.86;79.01
35848;BME280;22332;51.954;20.118;2022-10-16T04:18:44;100306.59;;;11.88;79.13
35848;BME280;22332;51.954;20.118;2022-10-16T04:21:50;100301.95;;;11.90;79.23
35848;BME280;22332;51.954;20.118;2022-10-16T04:24:55;100296.05;;;11.88;79.57
35848;BME280;22332;51.954;20.118;2022-10-16T04:28:00;100300.58;;;11.87;79.40
35848;BME280;22332;51.954;20.118;2022-10-16T04:31:06;100305.27;;;11.88;79.62
35848;BME280;22332;51.954;20.118;2022-10-16T04:34:12;100306.73;;;11.93;79.83
35848;BME280;22332;51.954;20.118;2022-10-16T04:37:17;100307.27;;;12.00;80.03
35848;BME280;22332;51.954;20.118;2022-10-16T04:40:23;100312.39;;;12.06;80.04
35848;BME280;22332;51.954;20.118;2022-10-16T04:43:28;100319.69;;;12.09;79.97
35848;BME280;22332;51.954;20.118;2022-10-16T04:46:33;100322.00;;;12.11;80.23
35848;BME280;22332;51.954;20.118;2022-10-16T04:49:39;100323.92;;;12.16;80.30
35848;BME280;22332;51.954;20.118;2022-10-16T04:52:44;100320.20;;;12.23;80.37
35848;BME280;22332;51.954;20.118;2022-10-16T04:55:50;100318.09;;;12.30;80.25
35848;BME280;22332;51.954;20.118;2022-10-16T04:58:56;100318.47;;;12.36;80.32
35848;BME280;22332;51.954;20.118;2022-10-16T05:02:01;100322.59;;;12.39;80.44
35848;BME280;22332;51.954;20.118;2022-10-16T05:05:08;100327.14;;;12.42;80.74
35848;BME280;22332;51.954;20.118;2022-10-16T05:08:15;100328.88;;;12.47;80.87
35848;BME280;22332;51.954;20.118;2022-10-16T05:11:20;100320.90;;;12.55;80.91
35848;BME280;22332;51.954;20.118;2022-10-16T05:14:25;100317.44;;;12.64;80.88
35848;BME280;22332;51.954;20.118;2022-10-16T05:17:31;100318.01;;;12.70;80.86
35848;BME280;22332;51.954;20.118;2022-10-16T05:20:36;100319.61;;;12.75;80.91
35848;BME280;22332;51.954;20.118;2022-10-16T05:23:41;100323.13;;;12.79;80.99
35848;BME280;22332;51.954;20.118;2022-10-16T05:26:47;100326.98;;;12.86;80.93
35848;BME280;22332;51.954;20.118;2022-10-16T05:29:52;100325.33;;;12.93;81.14
35848;BME280;22332;51.954;20.118;2022-10-16T05:32:57;100329.64;;;13.02;81.08
35848;BME280;22332;51.954;20.118;2022-10-16T05:36:05;100328.70;;;13.07;81.15
35848;BME280;22332;51.954;20.118;2022-10-16T05:39:11;100333.94;;;13.10;81.16
35848;BME280;22332;51.954;20.118;2022-10-16T05:42:16;100334.09;;;13.13;81.23
35848;BME280;22332;51.954;20.118;2022-10-16T05:45:22;100336.27;;;13.20;81.21
35848;BME280;22332;51.954;20.118;2022-10-16T05:48:28;100342.50;;;13.26;81.25
35848;BME280;22332;51.954;20.118;2022-10-16T05:51:33;100339.74;;;13.32;81.23
35848;BME280;22332;51.954;20.118;2022-10-16T05:54:39;100340.10;;;13.37;81.12
35848;BME280;22332;51.954;20.118;2022-10-16T05:57:44;100348.73;;;13.40;81.13
35848;BME280;22332;51.954;20.118;2022-10-16T06:00:56;100351.52;;;13.42;81.21
35848;BME280;22332;51.954;20.118;2022-10-16T06:04:02;100351.19;;;13.47;81.35
35848;BME280;22332;51.954;20.118;2022-10-16T06:07:07;100354.29;;;13.52;81.27
35848;BME280;22332;51.954;20.118;2022-10-16T06:10:13;100350.70;;;13.59;81.39
35848;BME280;22332;51.954;20.118;2022-10-16T06:13:18;100346.04;;;13.67;81.30
35848;BME280;22332;51.954;20.118;2022-10-16T06:16:24;100339.70;;;13.73;81.24
35848;BME280;22332;51.954;20.118;2022-10-16T06:19:31;100358.67;;;13.76;81.28
35848;BME280;22332;51.954;20.118;2022-10-16T06:22:36;100368.16;;;13.79;81.37
35848;BME280;22332;51.954;20.118;2022-10-16T06:25:41;100375.69;;;13.84;81.32
35848;BME280;22332;51.954;20.118;2022-10-16T06:28:47;100370.54;;;13.91;81.45
35848;BME280;22332;51.954;20.118;2022-10-16T06:31:52;100376.76;;;14.00;81.20
35848;BME280;22332;51.954;20.118;2022-10-16T06:34:58;100375.69;;;14.11;81.14
35848;BME280;22332;51.954;20.118;2022-10-16T06:38:03;100375.54;;;14.22;81.08
35848;BME280;22332;51.954;20.118;2022-10-16T06:41:09;100384.42;;;14.32;81.15
35848;BME280;22332;51.954;20.118;2022-10-16T06:44:16;100381.87;;;14.46;81.23
35848;BME280;22332;51.954;20.118;2022-10-16T06:47:22;100387.91;;;14.58;81.03
35848;BME280;22332;51.954;20.118;2022-10-16T06:50:27;100385.18;;;14.73;80.93
35848;BME280;22332;51.954;20.118;2022-10-16T06:53:34;100380.42;;;14.83;80.74
35848;BME280;22332;51.954;20.118;2022-10-16T06:56:40;100383.41;;;14.92;80.51
35848;BME280;22332;51.954;20.118;2022-10-16T06:59:45;100389.77;;;15.03;80.50
35848;BME280;22332;51.954;20.118;2022-10-16T07:02:51;100386.15;;;15.14;80.51
35848;BME280;22332;51.954;20.118;2022-10-16T07:05:56;100394.39;;;15.18;80.16
35848;BME280;22332;51.954;20.118;2022-10-16T07:09:05;100399.73;;;15.22;80.30
35848;BME280;22332;51.954;20.118;2022-10-16T07:12:11;100403.86;;;15.31;80.18
35848;BME280;22332;51.954;20.118;2022-10-16T07:15:16;100413.10;;;15.47;80.13
35848;BME280;22332;51.954;20.118;2022-10-16T07:18:22;100414.77;;;15.62;79.72
35848;BME280;22332;51.954;20.118;2022-10-16T07:21:32;100418.92;;;15.75;79.71
35848;BME280;22332;51.954;20.118;2022-10-16T07:24:39;100420.45;;;15.85;79.54
35848;BME280;22332;51.954;20.118;2022-10-16T07:27:45;100416.29;;;15.94;79.62
35848;BME280;22332;51.954;20.118;2022-10-16T07:30:50;100414.19;;;16.01;79.39
35848;BME280;22332;51.954;20.118;2022-10-16T07:33:57;100425.39;;;16.05;79.35
35848;BME280;22332;51.954;20.118;2022-10-16T07:37:02;100429.56;;;16.11;79.28
35848;BME280;22332;51.954;20.118;2022-10-16T07:40:10;100430.96;;;16.24;79.23
35848;BME280;22332;51.954;20.118;2022-10-16T07:43:16;100438.00;;;16.39;78.96
35848;BME280;22332;51.954;20.118;2022-10-16T07:46:22;100442.62;;;16.60;78.92
35848;BME280;22332;51.954;20.118;2022-10-16T07:49:28;100441.11;;;16.78;78.70
35848;BME280;22332;51.954;20.118;2022-10-16T07:52:33;100433.84;;;16.92;78.36
35848;BME280;22332;51.954;20.118;2022-10-16T07:55:39;100431.39;;;17.02;78.36
35848;BME280;22332;51.954;20.118;2022-10-16T07:58:44;100433.94;;;17.06;77.97
35848;BME280;22332;51.954;20.118;2022-10-16T08:01:51;100435.58;;;17.12;78.07
35848;BME280;22332;51.954;20.118;2022-10-16T08:04:56;100431.33;;;17.20;78.14
35848;BME280;22332;51.954;20.118;2022-10-16T08:08:02;100433.52;;;17.28;77.91
35848;BME280;22332;51.954;20.118;2022-10-16T08:11:07;100437.15;;;17.37;77.65
35848;BME280;22332;51.954;20.118;2022-10-16T08:14:13;100438.90;;;17.41;77.62
35848;BME280;22332;51.954;20.118;2022-10-16T08:17:18;100438.42;;;17.48;77.72
35848;BME280;22332;51.954;20.118;2022-10-16T08:20:24;100439.06;;;17.55;77.39
35848;BME280;22332;51.954;20.118;2022-10-16T08:23:29;100443.19;;;17.58;77.25
35848;BME280;22332;51.954;20.118;2022-10-16T08:26:35;100444.41;;;17.60;77.21
35848;BME280;22332;51.954;20.118;2022-10-16T08:29:40;100446.88;;;17.62;77.16
35848;BME280;22332;51.954;20.118;2022-10-16T08:32:46;100454.08;;;17.63;77.08
35848;BME280;22332;51.954;20.118;2022-10-16T08:35:55;100463.23;;;17.62;76.98
35848;BME280;22332;51.954;20.118;2022-10-16T08:39:00;100469.84;;;17.67;76.85
35848;BME280;22332;51.954;20.118;2022-10-16T08:42:25;100468.30;;;17.72;76.75
35848;BME280;22332;51.954;20.118;2022-10-16T08:45:43;100470.32;;;17.76;76.39
35848;BME280;22332;51.954;20.118;2022-10-16T08:48:53;100470.02;;;17.80;76.10
35848;BME280;22332;51.954;20.118;2022-10-16T08:51:59;100465.84;;;17.80;76.26
35848;BME280;22332;51.954;20.118;2022-10-16T08:55:06;100475.34;;;17.83;76.07
35848;BME280;22332;51.954;20.118;2022-10-16T08:58:15;100479.00;;;17.87;76.19
35848;BME280;22332;51.954;20.118;2022-10-16T09:01:22;100480.84;;;17.93;75.91
35848;BME280;22332;51.954;20.118;2022-10-16T09:04:50;100476.10;;;18.00;75.82
35848;BME280;22332;51.954;20.118;2022-10-16T09:08:06;100467.44;;;18.07;75.99
35848;BME280;22332;51.954;20.118;2022-10-16T09:11:20;100469.41;;;18.16;75.53
35848;BME280;22332;51.954;20.118;2022-10-16T09:14:39;100468.73;;;18.21;75.32
35848;BME280;22332;51.954;20.118;2022-10-16T09:17:52;100470.58;;;18.28;75.27
35848;BME280;22332;51.954;20.118;2022-10-16T09:21:05;100468.49;;;18.34;75.22
35848;BME280;22332;51.954;20.118;2022-10-16T09:24:15;100474.35;;;18.35;75.04
35848;BME280;22332;51.954;20.118;2022-10-16T09:27:21;100471.04;;;18.37;75.22
35848;BME280;22332;51.954;20.118;2022-10-16T09:30:29;100468.63;;;18.37;74.90
35848;BME280;22332;51.954;20.118;2022-10-16T09:33:37;100473.98;;;18.37;74.78
35848;BME280;22332;51.954;20.118;2022-10-16T09:36:46;100476.99;;;18.45;74.81
35848;BME280;22332;51.954;20.118;2022-10-16T09:39:52;100471.16;;;18.61;74.85
35848;BME280;22332;51.954;20.118;2022-10-16T09:43:05;100463.45;;;18.74;74.48
35848;BME280;22332;51.954;20.118;2022-10-16T09:46:26;100457.16;;;18.87;74.14
35848;BME280;22332;51.954;20.118;2022-10-16T09:49:33;100460.20;;;18.98;73.99
35848;BME280;22332;51.954;20.118;2022-10-16T09:52:38;100468.84;;;19.09;73.90
35848;BME280;22332;51.954;20.118;2022-10-16T09:55:51;100466.90;;;19.14;73.80
35848;BME280;22332;51.954;20.118;2022-10-16T09:58:58;100469.91;;;19.17;73.45
35848;BME280;22332;51.954;20.118;2022-10-16T10:02:10;100476.81;;;19.18;73.48
35848;BME280;22332;51.954;20.118;2022-10-16T10:05:22;100472.41;;;19.20;73.61
35848;BME280;22332;51.954;20.118;2022-10-16T10:08:28;100473.95;;;19.20;73.26
35848;BME280;22332;51.954;20.118;2022-10-16T10:11:45;100471.36;;;19.18;73.22
35848;BME280;22332;51.954;20.118;2022-10-16T10:14:53;100465.08;;;19.19;73.11
35848;BME280;22332;51.954;20.118;2022-10-16T10:18:00;100465.03;;;19.18;73.21
35848;BME280;22332;51.954;20.118;2022-10-16T10:21:16;100463.52;;;19.20;73.02
35848;BME280;22332;51.954;20.118;2022-10-16T10:24:22;100466.30;;;19.21;72.55
35848;BME280;22332;51.954;20.118;2022-10-16T10:27:35;100469.91;;;19.24;72.55
35848;BME280;22332;51.954;20.118;2022-10-16T10:30:52;100470.94;;;19.29;72.62
35848;BME280;22332;51.954;20.118;2022-10-16T10:34:05;100466.20;;;19.36;72.61
35848;BME280;22332;51.954;20.118;2022-10-16T10:37:27;100460.76;;;19.40;72.54
35848;BME280;22332;51.954;20.118;2022-10-16T10:40:45;100456.60;;;19.41;72.14
35848;BME280;22332;51.954;20.118;2022-10-16T10:44:01;100457.25;;;19.37;72.04
35848;BME280;22332;51.954;20.118;2022-10-16T10:47:15;100463.45;;;19.40;72.28
35848;BME280;22332;51.954;20.118;2022-10-16T10:50:29;100458.09;;;19.46;72.08
35848;BME280;22332;51.954;20.118;2022-10-16T10:53:47;100455.40;;;19.51;71.81
35848;BME280;22332;51.954;20.118;2022-10-16T10:57:02;100459.55;;;19.53;71.62
35848;BME280;22332;51.954;20.118;2022-10-16T11:00:17;100469.09;;;19.54;71.64
35848;BME280;22332;51.954;20.118;2022-10-16T11:03:48;100473.47;;;19.56;71.41
35848;BME280;22332;51.954;20.118;2022-10-16T11:07:03;100463.98;;;19.55;71.45
35848;BME280;22332;51.954;20.118;2022-10-16T11:10:15;100463.64;;;19.60;71.58
35848;BME280;22332;51.954;20.118;2022-10-16T11:13:30;100462.19;;;19.64;71.24
35848;BME280;22332;51.954;20.118;2022-10-16T11:16:42;100463.56;;;19.63;71.32
35848;BME280;22332;51.954;20.118;2022-10-16T11:19:51;100458.48;;;19.66;71.20
35848;BME280;22332;51.954;20.118;2022-10-16T11:23:05;100447.59;;;19.72;70.61
35848;BME280;22332;51.954;20.118;2022-10-16T11:26:18;100441.84;;;19.80;70.77
35848;BME280;22332;51.954;20.118;2022-10-16T11:29:29;100446.80;;;19.94;70.93
35848;BME280;22332;51.954;20.118;2022-10-16T11:32:45;100447.74;;;20.03;70.74
35848;BME280;22332;51.954;20.118;2022-10-16T11:35:55;100448.06;;;20.11;70.75
35848;BME280;22332;51.954;20.118;2022-10-16T11:39:14;100449.56;;;20.13;70.36
35848;BME280;22332;51.954;20.118;2022-10-16T11:42:29;100437.39;;;20.14;70.16
35848;BME280;22332;51.954;20.118;2022-10-16T11:45:34;100444.30;;;20.16;70.23
35848;BME280;22332;51.954;20.118;2022-10-16T11:48:48;100444.81;;;20.14;69.78
35848;BME280;22332;51.954;20.118;2022-10-16T11:52:00;100447.86;;;20.03;69.93
35848;BME280;22332;51.954;20.118;2022-10-16T11:55:16;100450.63;;;19.92;69.77
35848;BME280;22332;51.954;20.118;2022-10-16T11:58:27;100451.48;;;19.86;70.34
35848;BME280;22332;51.954;20.118;2022-10-16T12:01:38;100451.76;;;19.84;70.36
35848;BME280;22332;51.954;20.118;2022-10-16T12:04:50;100450.27;;;19.82;70.27
35848;BME280;22332;51.954;20.118;2022-10-16T12:08:10;100452.77;;;19.78;70.22
35848;BME280;22332;51.954;20.118;2022-10-16T12:11:32;100458.02;;;19.78;69.92
35848;BME280;22332;51.954;20.118;2022-10-16T12:14:40;100464.92;;;19.81;70.05
35848;BME280;22332;51.954;20.118;2022-10-16T12:17:45;100462.39;;;19.80;69.85
35848;BME280;22332;51.954;20.118;2022-10-16T12:20:57;100455.89;;;19.82;70.17
35848;BME280;22332;51.954;20.118;2022-10-16T12:24:26;100460.10;;;19.88;70.24
35848;BME280;22332;51.954;20.118;2022-10-16T12:27:33;100456.38;;;19.92;70.12
35848;BME280;22332;51.954;20.118;2022-10-16T12:30:40;100460.39;;;19.95;70.11
35848;BME280;22332;51.954;20.118;2022-10-16T12:33:56;100465.63;;;20.01;70.17
35848;BME280;22332;51.954;20.118;2022-10-16T12:37:12;100465.36;;;20.11;70.13
35848;BME280;22332;51.954;20.118;2022-10-16T12:40:27;100466.39;;;20.18;69.86
35848;BME280;22332;51.954;20.118;2022-10-16T12:43:40;100465.61;;;20.19;69.67
35848;BME280;22332;51.954;20.118;2022-10-16T12:46:47;100463.86;;;20.20;69.94
35848;BME280;22332;51.954;20.118;2022-10-16T12:49:55;100468.55;;;20.21;69.69
35848;BME280;22332;51.954;20.118;2022-10-16T12:53:03;100468.67;;;20.20;69.71
35848;BME280;22332;51.954;20.118;2022-10-16T12:56:17;100469.89;;;20.19;69.87
35848;BME280;22332;51.954;20.118;2022-10-16T12:59:35;100468.23;;;20.19;69.92
35848;BME280;22332;51.954;20.118;2022-10-16T13:03:20;100471.23;;;20.20;69.87
35848;BME280;22332;51.954;20.118;2022-10-16T13:06:33;100470.60;;;20.19;70.00
35848;BME280;22332;51.954;20.118;2022-10-16T13:09:53;100480.05;;;20.17;70.03
35848;BME280;22332;51.954;20.118;2022-10-16T13:13:16;100487.44;;;20.14;70.02
35848;BME280;22332;51.954;20.118;2022-10-16T13:16:30;100486.63;;;20.09;69.99
35848;BME280;22332;51.954;20.118;2022-10-16T13:19:46;100487.33;;;20.07;70.00
35848;BME280;22332;51.954;20.118;2022-10-16T13:23:02;100486.00;;;20.06;70.12
35848;BME280;22332;51.954;20.118;2022-10-16T13:26:20;100488.88;;;20.06;70.07
35848;BME280;22332;51.954;20.118;2022-10-16T13:29:33;100488.98;;;20.04;70.14
35848;BME280;22332;51.954;20.118;2022-10-16T13:32:39;100483.13;;;19.99;70.18
35848;BME280;22332;51.954;20.118;2022-10-16T13:35:53;100479.84;;;19.92;70.19
35848;BME280;22332;51.954;20.118;2022-10-16T13:39:10;100483.55;;;19.85;70.29
35848;BME280;22332;51.954;20.118;2022-10-16T13:42:22;100486.21;;;19.79;70.30
35848;BME280;22332;51.954;20.118;2022-10-16T13:45:28;100484.35;;;19.74;70.51
35848;BME280;22332;51.954;20.118;2022-10-16T13:48:34;100480.89;;;19.69;70.49
35848;BME280;22332;51.954;20.118;2022-10-16T13:51:40;100479.27;;;19.65;70.56
35848;BME280;22332;51.954;20.118;2022-10-16T13:54:46;100490.17;;;19.67;70.44
35848;BME280;22332;51.954;20.118;2022-10-16T13:57:51;100492.31;;;19.71;70.56
35848;BME280;22332;51.954;20.118;2022-10-16T14:00:59;100499.05;;;19.76;70.48
35848;BME280;22332;51.954;20.118;2022-10-16T14:04:08;100499.88;;;19.82;70.50
35848;BME280;22332;51.954;20.118;2022-10-16T14:07:20;100500.63;;;19.86;70.39
35848;BME280;22332;51.954;20.118;2022-10-16T14:10:30;100502.21;;;19.87;70.44
35848;BME280;22332;51.954;20.118;2022-10-16T14:13:39;100509.38;;;19.85;70.43
35848;BME280;22332;51.954;20.118;2022-10-16T14:16:48;100507.33;;;19.80;70.58
35848;BME280;22332;51.954;20.118;2022-10-16T14:19:55;100509.29;;;19.75;70.54
35848;BME280;22332;51.954;20.118;2022-10-16T14:23:03;100515.55;;;19.70;70.73
35848;BME280;22332;51.954;20.118;2022-10-16T14:26:17;100519.95;;;19.64;70.79
35848;BME280;22332;51.954;20.118;2022-10-16T14:29:25;100519.23;;;19.54;70.75
35848;BME280;22332;51.954;20.118;2022-10-16T14:32:30;100519.80;;;19.46;70.92
35848;BME280;22332;51.954;20.118;2022-10-16T14:35:38;100523.98;;;19.38;71.10
35848;BME280;22332;51.954;20.118;2022-10-16T14:38:52;100527.05;;;19.31;71.05
35848;BME280;22332;51.954;20.118;2022-10-16T14:42:00;100533.01;;;19.24;71.10
35848;BME280;22332;51.954;20.118;2022-10-16T14:45:10;100538.08;;;19.18;71.22
35848;BME280;22332;51.954;20.118;2022-10-16T14:48:18;100543.67;;;19.12;71.14
35848;BME280;22332;51.954;20.118;2022-10-16T14:51:24;100548.39;;;19.05;71.18
35848;BME280;22332;51.954;20.118;2022-10-16T14:54:30;100546.60;;;18.96;71.24
35848;BME280;22332;51.954;20.118;2022-10-16T14:57:37;100550.88;;;18.87;71.34
35848;BME280;22332;51.954;20.118;2022-10-16T15:00:43;100558.80;;;18.78;71.30
35848;BME280;22332;51.954;20.118;2022-10-16T15:03:49;100562.12;;;18.69;71.47
35848;BME280;22332;51.954;20.118;2022-10-16T15:06:56;100567.27;;;18.61;71.60
35848;BME280;22332;51.954;20.118;2022-10-16T15:10:02;100571.50;;;18.55;71.75
35848;BME280;22332;51.954;20.118;2022-10-16T15:13:08;100579.99;;;18.52;71.81
35848;BME280;22332;51.954;20.118;2022-10-16T15:16:15;100576.11;;;18.49;71.78
35848;BME280;22332;51.954;20.118;2022-10-16T15:19:21;100573.88;;;18.45;71.90
35848;BME280;22332;51.954;20.118;2022-10-16T15:22:26;100572.02;;;18.40;71.98
35848;BME280;22332;51.954;20.118;2022-10-16T15:25:35;100573.69;;;18.34;72.07
35848;BME280;22332;51.954;20.118;2022-10-16T15:28:41;100578.36;;;18.26;72.12
35848;BME280;22332;51.954;20.118;2022-10-16T15:31:47;100585.02;;;18.17;72.21
35848;BME280;22332;51.954;20.118;2022-10-16T15:34:52;100584.98;;;18.07;72.26
35848;BME280;22332;51.954;20.118;2022-10-16T15:37:57;100584.83;;;18.00;72.46
35848;BME280;22332;51.954;20.118;2022-10-16T15:41:03;100590.13;;;17.95;72.64
35848;BME280;22332;51.954;20.118;2022-10-16T15:44:09;100596.70;;;17.91;72.67
35848;BME280;22332;51.954;20.118;2022-10-16T15:47:14;100592.05;;;17.88;72.77
35848;BME280;22332;51.954;20.118;2022-10-16T15:50:20;100590.84;;;17.83;72.86
35848;BME280;22332;51.954;20.118;2022-10-16T15:53:25;100593.56;;;17.76;73.07
35848;BME280;22332;51.954;20.118;2022-10-16T15:56:31;100597.35;;;17.69;73.12
35848;BME280;22332;51.954;20.118;2022-10-16T15:59:37;100599.79;;;17.62;73.21
35848;BME280;22332;51.954;20.118;2022-10-16T16:02:43;100599.18;;;17.54;73.34
35848;BME280;22332;51.954;20.118;2022-10-16T16:05:49;100598.09;;;17.48;73.55
35848;BME280;22332;51.954;20.118;2022-10-16T16:08:54;100600.93;;;17.43;73.65
35848;BME280;22332;51.954;20.118;2022-10-16T16:12:00;100602.27;;;17.40;73.78
35848;BME280;22332;51.954;20.118;2022-10-16T16:15:07;100603.71;;;17.39;73.93